sensor_id;sensor_type;location;lat;lon;timestamp;P1;durP1;ratioP1;P2;durP2;ratioP2
73321;SDS011;61549;37.044;22.128;2022-12-24T00:01:26;4.78;;;3.45;;
73321;SDS011;61549;37.044;22.128;2022-12-24T00:03:52;4.07;;;3.60;;
73321;SDS011;61549;37.044;22.128;2022-12-24T00:06:19;5.07;;;3.40;;
73321;SDS011;61549;37.044;22.128;2022-12-24T00:08:48;5.07;;;3.45;;
73321;SDS011;61549;37.044;22.128;2022-12-24T00:11:15;5.43;;;3.17;;
73321;SDS011;61549;37.044;22.128;2022-12-24T00:13:41;4.93;;;3.00;;
73321;SDS011;61549;37.044;22.128;2022-12-24T00:16:07;4.38;;;3.20;;
73321;SDS011;61549;37.044;22.128;2022-12-24T00:18:33;4.07;;;3.10;;
73321;SDS011;61549;37.044;22.128;2022-12-24T00:20:59;4.75;;;3.33;;
73321;SDS011;61549;37.044;22.128;2022-12-24T00:23:28;4.43;;;3.03;;
73321;SDS011;61549;37.044;22.128;2022-12-24T00:25:54;3.90;;;3.10;;
73321;SDS011;61549;37.044;22.128;2022-12-24T00:28:20;4.50;;;3.25;;
73321;SDS011;61549;37.044;22.128;2022-12-24T00:30:46;5.15;;;3.33;;
73321;SDS011;61549;37.044;22.128;2022-12-24T00:33:12;3.97;;;3.13;;
73321;SDS011;61549;37.044;22.128;2022-12-24T00:35:39;5.57;;;3.80;;
73321;SDS011;61549;37.044;22.128;2022-12-24T00:38:05;4.85;;;3.55;;
73321;SDS011;61549;37.044;22.128;2022-12-24T00:40:32;5.28;;;3.38;;
73321;SDS011;61549;37.044;22.128;2022-12-24T00:42:58;4.75;;;3.65;;
73321;SDS011;61549;37.044;22.128;2022-12-24T00:45:24;5.03;;;3.33;;
73321;SDS011;61549;37.044;22.128;2022-12-24T00:47:52;4.40;;;3.30;;
73321;SDS011;61549;37.044;22.128;2022-12-24T00:50:18;4.32;;;3.20;;
73321;SDS011;61549;37.044;22.128;2022-12-24T00:52:44;4.03;;;3.10;;
73321;SDS011;61549;37.044;22.128;2022-12-24T00:55:09;4.95;;;3.33;;
73321;SDS011;61549;37.044;22.128;2022-12-24T00:57:35;4.18;;;2.95;;
73321;SDS011;61549;37.044;22.128;2022-12-24T01:00:01;3.83;;;2.83;;
73321;SDS011;61549;37.044;22.128;2022-12-24T01:02:28;4.57;;;2.80;;
73321;SDS011;61549;37.044;22.128;2022-12-24T01:04:54;3.35;;;2.80;;
73321;SDS011;61549;37.044;22.128;2022-12-24T01:07:35;3.75;;;3.00;;
73321;SDS011;61549;37.044;22.128;2022-12-24T01:10:03;3.85;;;2.90;;
73321;SDS011;61549;37.044;22.128;2022-12-24T01:12:29;3.92;;;2.85;;
73321;SDS011;61549;37.044;22.128;2022-12-24T01:14:55;3.25;;;2.72;;
73321;SDS011;61549;37.044;22.128;2022-12-24T01:17:21;4.20;;;2.90;;
73321;SDS011;61549;37.044;22.128;2022-12-24T01:19:47;3.17;;;2.60;;
73321;SDS011;61549;37.044;22.128;2022-12-24T01:22:13;4.47;;;3.00;;
73321;SDS011;61549;37.044;22.128;2022-12-24T01:24:39;3.45;;;2.70;;
73321;SDS011;61549;37.044;22.128;2022-12-24T01:27:06;4.03;;;2.83;;
73321;SDS011;61549;37.044;22.128;2022-12-24T01:29:32;3.35;;;2.63;;
73321;SDS011;61549;37.044;22.128;2022-12-24T01:31:58;2.75;;;2.33;;
73321;SDS011;61549;37.044;22.128;2022-12-24T01:34:24;2.67;;;2.20;;
73321;SDS011;61549;37.044;22.128;2022-12-24T01:36:50;3.22;;;2.28;;
73321;SDS011;61549;37.044;22.128;2022-12-24T01:39:15;2.72;;;2.30;;
73321;SDS011;61549;37.044;22.128;2022-12-24T01:41:41;3.67;;;2.17;;
73321;SDS011;61549;37.044;22.128;2022-12-24T01:49:33;2.75;;;2.30;;
73321;SDS011;61549;37.044;22.128;2022-12-24T01:52:25;2.65;;;1.95;;
73321;SDS011;61549;37.044;22.128;2022-12-24T01:55:11;3.53;;;2.20;;
73321;SDS011;61549;37.044;22.128;2022-12-24T01:57:50;4.05;;;2.50;;
73321;SDS011;61549;37.044;22.128;2022-12-24T02:00:20;4.10;;;2.30;;
73321;SDS011;61549;37.044;22.128;2022-12-24T02:02:47;3.03;;;2.40;;
73321;SDS011;61549;37.044;22.128;2022-12-24T02:05:34;3.70;;;2.50;;
73321;SDS011;61549;37.044;22.128;2022-12-24T02:08:06;3.88;;;2.45;;
73321;SDS011;61549;37.044;22.128;2022-12-24T02:10:32;3.03;;;2.40;;
73321;SDS011;61549;37.044;22.128;2022-12-24T02:12:58;3.55;;;2.53;;
73321;SDS011;61549;37.044;22.128;2022-12-24T02:15:26;3.20;;;2.22;;
73321;SDS011;61549;37.044;22.128;2022-12-24T02:20:53;3.47;;;2.20;;
73321;SDS011;61549;37.044;22.128;2022-12-24T02:31:39;2.85;;;1.90;;
73321;SDS011;61549;37.044;22.128;2022-12-24T02:39:50;2.85;;;2.10;;
73321;SDS011;61549;37.044;22.128;2022-12-24T02:42:30;3.45;;;1.83;;
73321;SDS011;61549;37.044;22.128;2022-12-24T02:45:05;2.53;;;1.80;;
73321;SDS011;61549;37.044;22.128;2022-12-24T02:47:32;2.30;;;1.80;;
73321;SDS011;61549;37.044;22.128;2022-12-24T02:50:00;2.75;;;1.73;;
73321;SDS011;61549;37.044;22.128;2022-12-24T02:52:36;2.20;;;1.60;;
73321;SDS011;61549;37.044;22.128;2022-12-24T02:55:05;1.67;;;1.48;;
73321;SDS011;61549;37.044;22.128;2022-12-24T03:11:12;2.67;;;1.70;;
73321;SDS011;61549;37.044;22.128;2022-12-24T03:13:41;2.85;;;1.73;;
73321;SDS011;61549;37.044;22.128;2022-12-24T03:16:09;2.17;;;1.60;;
73321;SDS011;61549;37.044;22.128;2022-12-24T03:18:39;1.50;;;1.30;;
73321;SDS011;61549;37.044;22.128;2022-12-24T03:21:14;2.08;;;1.48;;
73321;SDS011;61549;37.044;22.128;2022-12-24T03:23:44;2.55;;;1.52;;
73321;SDS011;61549;37.044;22.128;2022-12-24T03:26:11;1.73;;;1.40;;
73321;SDS011;61549;37.044;22.128;2022-12-24T03:28:40;2.13;;;1.40;;
73321;SDS011;61549;37.044;22.128;2022-12-24T03:31:07;1.92;;;1.50;;
73321;SDS011;61549;37.044;22.128;2022-12-24T03:33:34;3.08;;;1.30;;
73321;SDS011;61549;37.044;22.128;2022-12-24T03:36:00;1.73;;;1.30;;
73321;SDS011;61549;37.044;22.128;2022-12-24T03:38:26;1.70;;;1.35;;
73321;SDS011;61549;37.044;22.128;2022-12-24T03:40:52;1.70;;;1.40;;
73321;SDS011;61549;37.044;22.128;2022-12-24T03:43:18;3.17;;;1.40;;
73321;SDS011;61549;37.044;22.128;2022-12-24T03:45:44;1.77;;;1.48;;
73321;SDS011;61549;37.044;22.128;2022-12-24T03:48:10;2.17;;;1.55;;
73321;SDS011;61549;37.044;22.128;2022-12-24T03:50:36;1.92;;;1.50;;
73321;SDS011;61549;37.044;22.128;2022-12-24T03:53:02;2.05;;;1.58;;
73321;SDS011;61549;37.044;22.128;2022-12-24T03:55:27;2.47;;;1.80;;
73321;SDS011;61549;37.044;22.128;2022-12-24T03:57:53;2.65;;;2.05;;
73321;SDS011;61549;37.044;22.128;2022-12-24T04:00:19;2.60;;;2.00;;
73321;SDS011;61549;37.044;22.128;2022-12-24T04:02:45;2.40;;;2.00;;
73321;SDS011;61549;37.044;22.128;2022-12-24T04:05:15;2.55;;;2.10;;
73321;SDS011;61549;37.044;22.128;2022-12-24T04:07:43;3.25;;;2.10;;
73321;SDS011;61549;37.044;22.128;2022-12-24T04:10:09;3.33;;;2.30;;
73321;SDS011;61549;37.044;22.128;2022-12-24T04:12:35;2.75;;;1.95;;
73321;SDS011;61549;37.044;22.128;2022-12-24T04:15:02;2.53;;;1.90;;
73321;SDS011;61549;37.044;22.128;2022-12-24T04:17:29;3.75;;;2.10;;
73321;SDS011;61549;37.044;22.128;2022-12-24T04:19:54;2.72;;;1.60;;
73321;SDS011;61549;37.044;22.128;2022-12-24T04:22:20;2.20;;;1.48;;
73321;SDS011;61549;37.044;22.128;2022-12-24T04:24:46;1.92;;;1.48;;
73321;SDS011;61549;37.044;22.128;2022-12-24T04:27:13;1.70;;;1.30;;
73321;SDS011;61549;37.044;22.128;2022-12-24T04:29:39;2.50;;;1.38;;
73321;SDS011;61549;37.044;22.128;2022-12-24T04:32:05;2.22;;;1.48;;
73321;SDS011;61549;37.044;22.128;2022-12-24T04:34:31;2.13;;;1.50;;
73321;SDS011;61549;37.044;22.128;2022-12-24T04:36:57;1.73;;;1.30;;
73321;SDS011;61549;37.044;22.128;2022-12-24T04:39:23;1.88;;;1.40;;
73321;SDS011;61549;37.044;22.128;2022-12-24T04:41:49;1.77;;;1.20;;
73321;SDS011;61549;37.044;22.128;2022-12-24T04:44:14;2.38;;;1.52;;
73321;SDS011;61549;37.044;22.128;2022-12-24T04:46:40;1.80;;;1.50;;
73321;SDS011;61549;37.044;22.128;2022-12-24T04:49:06;3.50;;;1.80;;
73321;SDS011;61549;37.044;22.128;2022-12-24T04:51:33;2.28;;;1.65;;
73321;SDS011;61549;37.044;22.128;2022-12-24T04:53:59;2.88;;;1.52;;
73321;SDS011;61549;37.044;22.128;2022-12-24T04:56:26;1.80;;;1.50;;
73321;SDS011;61549;37.044;22.128;2022-12-24T04:58:53;1.50;;;1.40;;
73321;SDS011;61549;37.044;22.128;2022-12-24T05:01:21;2.05;;;1.50;;
73321;SDS011;61549;37.044;22.128;2022-12-24T05:03:51;2.13;;;1.50;;
73321;SDS011;61549;37.044;22.128;2022-12-24T05:06:19;1.92;;;1.40;;
73321;SDS011;61549;37.044;22.128;2022-12-24T05:08:47;3.45;;;1.65;;
73321;SDS011;61549;37.044;22.128;2022-12-24T05:11:14;2.08;;;1.60;;
73321;SDS011;61549;37.044;22.128;2022-12-24T05:13:41;2.17;;;1.50;;
73321;SDS011;61549;37.044;22.128;2022-12-24T05:16:08;2.78;;;1.40;;
73321;SDS011;61549;37.044;22.128;2022-12-24T05:18:35;2.70;;;1.30;;
73321;SDS011;61549;37.044;22.128;2022-12-24T05:21:00;1.83;;;1.20;;
73321;SDS011;61549;37.044;22.128;2022-12-24T05:23:26;1.90;;;1.30;;
73321;SDS011;61549;37.044;22.128;2022-12-24T05:26:15;2.67;;;1.50;;
73321;SDS011;61549;37.044;22.128;2022-12-24T05:28:57;2.47;;;1.60;;
73321;SDS011;61549;37.044;22.128;2022-12-24T05:31:24;2.17;;;1.58;;
73321;SDS011;61549;37.044;22.128;2022-12-24T05:34:00;3.15;;;1.70;;
73321;SDS011;61549;37.044;22.128;2022-12-24T05:36:27;3.75;;;1.80;;
73321;SDS011;61549;37.044;22.128;2022-12-24T05:38:53;2.22;;;1.60;;
73321;SDS011;61549;37.044;22.128;2022-12-24T05:41:19;4.47;;;1.80;;
73321;SDS011;61549;37.044;22.128;2022-12-24T05:43:45;3.72;;;1.70;;
73321;SDS011;61549;37.044;22.128;2022-12-24T05:46:13;3.30;;;1.80;;
73321;SDS011;61549;37.044;22.128;2022-12-24T05:48:40;5.25;;;1.70;;
73321;SDS011;61549;37.044;22.128;2022-12-24T05:51:07;2.30;;;1.50;;
73321;SDS011;61549;37.044;22.128;2022-12-24T05:53:34;1.80;;;1.42;;
73321;SDS011;61549;37.044;22.128;2022-12-24T05:56:09;2.17;;;1.60;;
73321;SDS011;61549;37.044;22.128;2022-12-24T05:58:39;1.52;;;1.30;;
73321;SDS011;61549;37.044;22.128;2022-12-24T06:01:06;2.50;;;1.55;;
73321;SDS011;61549;37.044;22.128;2022-12-24T06:03:33;2.38;;;1.80;;
73321;SDS011;61549;37.044;22.128;2022-12-24T06:06:00;2.20;;;1.63;;
73321;SDS011;61549;37.044;22.128;2022-12-24T06:08:27;2.85;;;2.03;;
73321;SDS011;61549;37.044;22.128;2022-12-24T06:10:57;3.05;;;2.17;;
73321;SDS011;61549;37.044;22.128;2022-12-24T06:13:27;3.67;;;2.60;;
73321;SDS011;61549;37.044;22.128;2022-12-24T06:15:54;4.25;;;2.80;;
73321;SDS011;61549;37.044;22.128;2022-12-24T06:18:24;2.80;;;2.28;;
73321;SDS011;61549;37.044;22.128;2022-12-24T06:20:51;3.10;;;2.40;;
73321;SDS011;61549;37.044;22.128;2022-12-24T06:23:18;3.35;;;2.50;;
73321;SDS011;61549;37.044;22.128;2022-12-24T06:25:45;2.90;;;2.30;;
73321;SDS011;61549;37.044;22.128;2022-12-24T06:28:11;4.28;;;2.42;;
73321;SDS011;61549;37.044;22.128;2022-12-24T06:30:37;3.20;;;2.53;;
73321;SDS011;61549;37.044;22.128;2022-12-24T06:33:03;3.47;;;2.70;;
73321;SDS011;61549;37.044;22.128;2022-12-24T06:35:32;4.53;;;2.78;;
73321;SDS011;61549;37.044;22.128;2022-12-24T06:37:58;5.13;;;3.20;;
73321;SDS011;61549;37.044;22.128;2022-12-24T06:40:25;5.93;;;3.65;;
73321;SDS011;61549;37.044;22.128;2022-12-24T06:42:52;9.30;;;4.07;;
73321;SDS011;61549;37.044;22.128;2022-12-24T06:45:18;5.22;;;3.28;;
73321;SDS011;61549;37.044;22.128;2022-12-24T06:47:44;4.63;;;2.60;;
73321;SDS011;61549;37.044;22.128;2022-12-24T06:50:10;4.80;;;2.42;;
73321;SDS011;61549;37.044;22.128;2022-12-24T06:52:35;3.20;;;2.20;;
73321;SDS011;61549;37.044;22.128;2022-12-24T06:55:02;2.72;;;2.15;;
73321;SDS011;61549;37.044;22.128;2022-12-24T06:57:29;3.55;;;2.08;;
73321;SDS011;61549;37.044;22.128;2022-12-24T06:59:56;2.70;;;1.80;;
73321;SDS011;61549;37.044;22.128;2022-12-24T07:02:22;3.40;;;2.28;;
73321;SDS011;61549;37.044;22.128;2022-12-24T07:04:48;3.75;;;3.03;;
73321;SDS011;61549;37.044;22.128;2022-12-24T07:07:14;10.93;;;7.20;;
73321;SDS011;61549;37.044;22.128;2022-12-24T07:09:40;22.98;;;15.02;;
73321;SDS011;61549;37.044;22.128;2022-12-24T07:12:06;15.23;;;10.52;;
73321;SDS011;61549;37.044;22.128;2022-12-24T07:14:32;9.05;;;6.65;;
73321;SDS011;61549;37.044;22.128;2022-12-24T07:16:58;5.78;;;3.83;;
73321;SDS011;61549;37.044;22.128;2022-12-24T07:19:24;5.78;;;3.33;;
73321;SDS011;61549;37.044;22.128;2022-12-24T07:21:50;3.03;;;2.30;;
73321;SDS011;61549;37.044;22.128;2022-12-24T07:24:16;4.18;;;2.58;;
73321;SDS011;61549;37.044;22.128;2022-12-24T07:26:42;5.72;;;2.80;;
73321;SDS011;61549;37.044;22.128;2022-12-24T07:29:08;3.58;;;2.33;;
73321;SDS011;61549;37.044;22.128;2022-12-24T07:31:34;9.18;;;5.97;;
73321;SDS011;61549;37.044;22.128;2022-12-24T07:34:00;11.13;;;6.88;;
73321;SDS011;61549;37.044;22.128;2022-12-24T07:36:25;10.73;;;7.22;;
73321;SDS011;61549;37.044;22.128;2022-12-24T07:38:52;14.20;;;9.93;;
73321;SDS011;61549;37.044;22.128;2022-12-24T07:41:19;13.45;;;9.35;;
73321;SDS011;61549;37.044;22.128;2022-12-24T07:43:45;11.70;;;8.30;;
73321;SDS011;61549;37.044;22.128;2022-12-24T07:46:11;18.35;;;12.85;;
73321;SDS011;61549;37.044;22.128;2022-12-24T07:48:37;25.70;;;17.83;;
73321;SDS011;61549;37.044;22.128;2022-12-24T07:51:03;19.52;;;13.70;;
73321;SDS011;61549;37.044;22.128;2022-12-24T07:53:30;9.35;;;7.00;;
73321;SDS011;61549;37.044;22.128;2022-12-24T07:55:56;9.38;;;7.07;;
73321;SDS011;61549;37.044;22.128;2022-12-24T07:58:22;9.68;;;7.50;;
73321;SDS011;61549;37.044;22.128;2022-12-24T08:00:48;15.93;;;12.80;;
73321;SDS011;61549;37.044;22.128;2022-12-24T08:03:19;29.73;;;22.23;;
73321;SDS011;61549;37.044;22.128;2022-12-24T08:05:45;25.75;;;19.75;;
73321;SDS011;61549;37.044;22.128;2022-12-24T08:08:12;27.15;;;20.08;;
73321;SDS011;61549;37.044;22.128;2022-12-24T08:10:38;25.60;;;19.30;;
73321;SDS011;61549;37.044;22.128;2022-12-24T08:13:05;29.85;;;22.75;;
73321;SDS011;61549;37.044;22.128;2022-12-24T08:15:31;51.88;;;36.75;;
73321;SDS011;61549;37.044;22.128;2022-12-24T08:17:57;44.60;;;31.17;;
73321;SDS011;61549;37.044;22.128;2022-12-24T08:20:23;43.35;;;31.58;;
73321;SDS011;61549;37.044;22.128;2022-12-24T08:22:49;41.72;;;29.80;;
73321;SDS011;61549;37.044;22.128;2022-12-24T08:25:15;38.17;;;28.33;;
73321;SDS011;61549;37.044;22.128;2022-12-24T08:27:41;26.60;;;20.00;;
73321;SDS011;61549;37.044;22.128;2022-12-24T08:30:07;14.95;;;12.15;;
73321;SDS011;61549;37.044;22.128;2022-12-24T08:32:33;12.90;;;9.77;;
73321;SDS011;61549;37.044;22.128;2022-12-24T08:34:59;23.42;;;17.05;;
73321;SDS011;61549;37.044;22.128;2022-12-24T08:37:25;23.67;;;18.38;;
73321;SDS011;61549;37.044;22.128;2022-12-24T08:39:51;22.25;;;16.98;;
73321;SDS011;61549;37.044;22.128;2022-12-24T08:42:16;21.25;;;16.45;;
73321;SDS011;61549;37.044;22.128;2022-12-24T08:44:42;23.73;;;17.88;;
73321;SDS011;61549;37.044;22.128;2022-12-24T08:47:08;24.73;;;17.95;;
73321;SDS011;61549;37.044;22.128;2022-12-24T08:49:34;30.10;;;22.27;;
73321;SDS011;61549;37.044;22.128;2022-12-24T08:52:00;27.88;;;20.13;;
73321;SDS011;61549;37.044;22.128;2022-12-24T08:54:26;21.38;;;15.30;;
73321;SDS011;61549;37.044;22.128;2022-12-24T08:56:52;13.00;;;10.40;;
73321;SDS011;61549;37.044;22.128;2022-12-24T08:59:17;60.22;;;13.20;;
73321;SDS011;61549;37.044;22.128;2022-12-24T09:01:43;9.15;;;6.88;;
73321;SDS011;61549;37.044;22.128;2022-12-24T09:04:09;8.27;;;6.53;;
73321;SDS011;61549;37.044;22.128;2022-12-24T09:06:35;11.52;;;7.57;;
73321;SDS011;61549;37.044;22.128;2022-12-24T09:09:02;11.05;;;6.72;;
73321;SDS011;61549;37.044;22.128;2022-12-24T09:11:28;15.40;;;8.55;;
73321;SDS011;61549;37.044;22.128;2022-12-24T09:13:55;9.10;;;7.15;;
73321;SDS011;61549;37.044;22.128;2022-12-24T09:16:20;8.77;;;6.30;;
73321;SDS011;61549;37.044;22.128;2022-12-24T09:18:46;10.63;;;6.70;;
73321;SDS011;61549;37.044;22.128;2022-12-24T09:21:13;8.02;;;6.18;;
73321;SDS011;61549;37.044;22.128;2022-12-24T09:23:41;7.28;;;5.75;;
73321;SDS011;61549;37.044;22.128;2022-12-24T09:26:08;11.32;;;5.78;;
73321;SDS011;61549;37.044;22.128;2022-12-24T09:28:39;8.60;;;5.20;;
73321;SDS011;61549;37.044;22.128;2022-12-24T09:31:05;6.10;;;4.93;;
73321;SDS011;61549;37.044;22.128;2022-12-24T09:33:32;6.97;;;5.18;;
73321;SDS011;61549;37.044;22.128;2022-12-24T09:36:00;8.82;;;5.93;;
73321;SDS011;61549;37.044;22.128;2022-12-24T09:38:26;6.60;;;4.97;;
73321;SDS011;61549;37.044;22.128;2022-12-24T09:40:52;9.52;;;5.15;;
73321;SDS011;61549;37.044;22.128;2022-12-24T09:43:20;7.13;;;5.40;;
73321;SDS011;61549;37.044;22.128;2022-12-24T09:46:22;10.23;;;8.43;;
73321;SDS011;61549;37.044;22.128;2022-12-24T09:48:58;12.57;;;9.13;;
73321;SDS011;61549;37.044;22.128;2022-12-24T09:51:49;10.75;;;9.13;;
73321;SDS011;61549;37.044;22.128;2022-12-24T09:54:23;11.98;;;9.93;;
73321;SDS011;61549;37.044;22.128;2022-12-24T09:56:55;10.25;;;8.23;;
73321;SDS011;61549;37.044;22.128;2022-12-24T09:59:26;10.60;;;7.80;;
73321;SDS011;61549;37.044;22.128;2022-12-24T10:02:08;11.82;;;7.45;;
73321;SDS011;61549;37.044;22.128;2022-12-24T10:04:36;9.50;;;7.65;;
73321;SDS011;61549;37.044;22.128;2022-12-24T10:09:42;8.95;;;6.95;;
73321;SDS011;61549;37.044;22.128;2022-12-24T10:12:28;7.70;;;6.00;;
73321;SDS011;61549;37.044;22.128;2022-12-24T10:15:14;7.55;;;5.60;;
73321;SDS011;61549;37.044;22.128;2022-12-24T10:18:14;8.63;;;6.00;;
73321;SDS011;61549;37.044;22.128;2022-12-24T10:29:00;5.03;;;4.22;;
73321;SDS011;61549;37.044;22.128;2022-12-24T10:31:38;6.95;;;4.20;;
73321;SDS011;61549;37.044;22.128;2022-12-24T10:34:15;6.03;;;4.60;;
73321;SDS011;61549;37.044;22.128;2022-12-24T10:36:48;6.60;;;5.03;;
73321;SDS011;61549;37.044;22.128;2022-12-24T10:39:19;10.48;;;6.70;;
73321;SDS011;61549;37.044;22.128;2022-12-24T10:41:49;6.25;;;4.70;;
73321;SDS011;61549;37.044;22.128;2022-12-24T10:44:19;4.35;;;3.60;;
73321;SDS011;61549;37.044;22.128;2022-12-24T10:46:47;4.30;;;3.58;;
73321;SDS011;61549;37.044;22.128;2022-12-24T10:49:15;4.80;;;3.72;;
73321;SDS011;61549;37.044;22.128;2022-12-24T10:51:54;5.13;;;4.22;;
73321;SDS011;61549;37.044;22.128;2022-12-24T10:54:25;4.50;;;3.50;;
73321;SDS011;61549;37.044;22.128;2022-12-24T10:56:56;7.28;;;4.15;;
73321;SDS011;61549;37.044;22.128;2022-12-24T11:01:51;5.32;;;4.10;;
73321;SDS011;61549;37.044;22.128;2022-12-24T11:04:19;4.93;;;3.30;;
73321;SDS011;61549;37.044;22.128;2022-12-24T11:10:02;3.92;;;2.78;;
73321;SDS011;61549;37.044;22.128;2022-12-24T11:12:19;4.35;;;2.78;;
73321;SDS011;61549;37.044;22.128;2022-12-24T11:14:47;3.38;;;2.30;;
73321;SDS011;61549;37.044;22.128;2022-12-24T11:17:23;5.97;;;2.40;;
73321;SDS011;61549;37.044;22.128;2022-12-24T11:19:49;4.78;;;2.58;;
73321;SDS011;61549;37.044;22.128;2022-12-24T11:22:17;6.25;;;3.20;;
73321;SDS011;61549;37.044;22.128;2022-12-24T11:27:43;5.00;;;3.40;;
73321;SDS011;61549;37.044;22.128;2022-12-24T11:32:46;4.82;;;3.60;;
73321;SDS011;61549;37.044;22.128;2022-12-24T11:35:32;3.00;;;2.40;;
73321;SDS011;61549;37.044;22.128;2022-12-24T11:40:35;5.25;;;3.45;;
73321;SDS011;61549;37.044;22.128;2022-12-24T11:43:16;5.10;;;3.67;;
73321;SDS011;61549;37.044;22.128;2022-12-24T11:45:51;4.03;;;3.63;;
73321;SDS011;61549;37.044;22.128;2022-12-24T11:48:36;4.28;;;3.35;;
73321;SDS011;61549;37.044;22.128;2022-12-24T11:51:03;4.63;;;3.65;;
73321;SDS011;61549;37.044;22.128;2022-12-24T11:53:35;6.68;;;3.85;;
73321;SDS011;61549;37.044;22.128;2022-12-24T11:56:05;5.68;;;3.50;;
73321;SDS011;61549;37.044;22.128;2022-12-24T11:58:49;4.93;;;3.55;;
73321;SDS011;61549;37.044;22.128;2022-12-24T12:01:22;3.95;;;3.20;;
73321;SDS011;61549;37.044;22.128;2022-12-24T12:03:50;4.95;;;3.80;;
73321;SDS011;61549;37.044;22.128;2022-12-24T12:09:06;8.50;;;3.13;;
73321;SDS011;61549;37.044;22.128;2022-12-24T12:11:38;4.80;;;3.00;;
73321;SDS011;61549;37.044;22.128;2022-12-24T12:14:08;3.90;;;3.20;;
73321;SDS011;61549;37.044;22.128;2022-12-24T12:16:50;6.72;;;3.05;;
73321;SDS011;61549;37.044;22.128;2022-12-24T12:19:44;3.97;;;2.97;;
73321;SDS011;61549;37.044;22.128;2022-12-24T12:22:28;3.97;;;3.05;;
73321;SDS011;61549;37.044;22.128;2022-12-24T12:25:21;4.05;;;3.50;;
73321;SDS011;61549;37.044;22.128;2022-12-24T12:27:53;5.10;;;3.47;;
73321;SDS011;61549;37.044;22.128;2022-12-24T12:30:21;3.42;;;2.80;;
73321;SDS011;61549;37.044;22.128;2022-12-24T12:35:39;4.93;;;3.65;;
73321;SDS011;61549;37.044;22.128;2022-12-24T12:38:11;4.05;;;3.25;;
73321;SDS011;61549;37.044;22.128;2022-12-24T12:45:53;5.43;;;3.78;;
73321;SDS011;61549;37.044;22.128;2022-12-24T12:51:14;7.18;;;4.90;;
73321;SDS011;61549;37.044;22.128;2022-12-24T12:54:00;6.43;;;4.95;;
73321;SDS011;61549;37.044;22.128;2022-12-24T12:56:50;6.00;;;3.88;;
73321;SDS011;61549;37.044;22.128;2022-12-24T12:59:29;6.40;;;4.55;;
73321;SDS011;61549;37.044;22.128;2022-12-24T13:19:25;5.25;;;4.70;;
73321;SDS011;61549;37.044;22.128;2022-12-24T13:22:22;6.65;;;4.80;;
73321;SDS011;61549;37.044;22.128;2022-12-24T13:24:50;6.25;;;4.45;;
73321;SDS011;61549;37.044;22.128;2022-12-24T13:27:19;6.03;;;4.10;;
73321;SDS011;61549;37.044;22.128;2022-12-24T13:34:50;5.57;;;4.35;;
73321;SDS011;61549;37.044;22.128;2022-12-24T13:37:41;5.68;;;4.70;;
73321;SDS011;61549;37.044;22.128;2022-12-24T13:47:57;8.15;;;6.72;;
73321;SDS011;61549;37.044;22.128;2022-12-24T13:50:46;7.22;;;5.50;;
73321;SDS011;61549;37.044;22.128;2022-12-24T13:55:51;7.03;;;5.45;;
73321;SDS011;61549;37.044;22.128;2022-12-24T13:58:19;5.72;;;5.07;;
73321;SDS011;61549;37.044;22.128;2022-12-24T14:03:27;7.45;;;5.93;;
73321;SDS011;61549;37.044;22.128;2022-12-24T14:06:06;7.70;;;6.15;;
73321;SDS011;61549;37.044;22.128;2022-12-24T14:08:39;7.40;;;6.25;;
73321;SDS011;61549;37.044;22.128;2022-12-24T14:11:09;8.45;;;5.82;;
73321;SDS011;61549;37.044;22.128;2022-12-24T14:18:58;8.43;;;5.78;;
73321;SDS011;61549;37.044;22.128;2022-12-24T14:21:35;9.43;;;7.22;;
73321;SDS011;61549;37.044;22.128;2022-12-24T14:24:13;9.45;;;6.10;;
73321;SDS011;61549;37.044;22.128;2022-12-24T14:29:17;12.43;;;6.70;;
73321;SDS011;61549;37.044;22.128;2022-12-24T14:32:13;7.75;;;6.57;;
73321;SDS011;61549;37.044;22.128;2022-12-24T14:34:40;10.02;;;7.30;;
73321;SDS011;61549;37.044;22.128;2022-12-24T14:37:07;10.98;;;8.05;;
73321;SDS011;61549;37.044;22.128;2022-12-24T14:39:40;10.20;;;7.85;;
73321;SDS011;61549;37.044;22.128;2022-12-24T14:48:27;10.15;;;8.82;;
73321;SDS011;61549;37.044;22.128;2022-12-24T14:50:50;34.27;;;26.70;;
73321;SDS011;61549;37.044;22.128;2022-12-24T14:56:34;38.67;;;27.05;;
73321;SDS011;61549;37.044;22.128;2022-12-24T14:59:12;54.92;;;40.83;;
73321;SDS011;61549;37.044;22.128;2022-12-24T15:06:39;7.38;;;6.35;;
73321;SDS011;61549;37.044;22.128;2022-12-24T15:09:27;11.60;;;8.57;;
73321;SDS011;61549;37.044;22.128;2022-12-24T15:11:56;10.43;;;7.35;;
73321;SDS011;61549;37.044;22.128;2022-12-24T15:14:25;10.85;;;8.60;;
73321;SDS011;61549;37.044;22.128;2022-12-24T15:17:02;10.82;;;8.43;;
73321;SDS011;61549;37.044;22.128;2022-12-24T15:19:38;16.25;;;12.90;;
73321;SDS011;61549;37.044;22.128;2022-12-24T15:22:11;18.85;;;15.48;;
73321;SDS011;61549;37.044;22.128;2022-12-24T15:24:49;21.17;;;16.30;;
73321;SDS011;61549;37.044;22.128;2022-12-24T15:27:16;27.75;;;21.52;;
73321;SDS011;61549;37.044;22.128;2022-12-24T15:29:48;20.42;;;15.60;;
73321;SDS011;61549;37.044;22.128;2022-12-24T15:32:17;18.77;;;15.68;;
73321;SDS011;61549;37.044;22.128;2022-12-24T15:34:48;19.58;;;17.05;;
73321;SDS011;61549;37.044;22.128;2022-12-24T15:39:57;17.05;;;13.05;;
73321;SDS011;61549;37.044;22.128;2022-12-24T15:42:28;26.97;;;22.23;;
73321;SDS011;61549;37.044;22.128;2022-12-24T15:45:02;23.50;;;18.70;;
73321;SDS011;61549;37.044;22.128;2022-12-24T15:47:41;25.02;;;18.73;;
73321;SDS011;61549;37.044;22.128;2022-12-24T15:50:22;22.67;;;16.83;;
73321;SDS011;61549;37.044;22.128;2022-12-24T15:53:01;20.20;;;15.82;;
73321;SDS011;61549;37.044;22.128;2022-12-24T15:55:37;38.03;;;28.88;;
73321;SDS011;61549;37.044;22.128;2022-12-24T15:58:16;50.13;;;35.10;;
73321;SDS011;61549;37.044;22.128;2022-12-24T16:01:50;31.35;;;23.30;;
73321;SDS011;61549;37.044;22.128;2022-12-24T16:06:18;14.27;;;11.50;;
73321;SDS011;61549;37.044;22.128;2022-12-24T16:08:45;14.00;;;10.70;;
73321;SDS011;61549;37.044;22.128;2022-12-24T16:16:15;16.40;;;11.93;;
73321;SDS011;61549;37.044;22.128;2022-12-24T16:21:25;12.82;;;9.93;;
73321;SDS011;61549;37.044;22.128;2022-12-24T16:24:03;10.98;;;8.65;;
73321;SDS011;61549;37.044;22.128;2022-12-24T16:31:43;8.93;;;7.38;;
73321;SDS011;61549;37.044;22.128;2022-12-24T16:34:12;11.18;;;7.20;;
73321;SDS011;61549;37.044;22.128;2022-12-24T16:36:39;13.75;;;10.73;;
73321;SDS011;61549;37.044;22.128;2022-12-24T16:39:13;11.27;;;7.70;;
73321;SDS011;61549;37.044;22.128;2022-12-24T16:41:50;8.65;;;6.38;;
73321;SDS011;61549;37.044;22.128;2022-12-24T16:44:39;8.48;;;6.55;;
73321;SDS011;61549;37.044;22.128;2022-12-24T16:47:05;9.32;;;7.82;;
73321;SDS011;61549;37.044;22.128;2022-12-24T16:49:38;13.20;;;9.63;;
73321;SDS011;61549;37.044;22.128;2022-12-24T16:52:14;14.77;;;11.10;;
73321;SDS011;61549;37.044;22.128;2022-12-24T16:54:53;14.23;;;10.70;;
73321;SDS011;61549;37.044;22.128;2022-12-24T16:57:20;12.45;;;9.85;;
73321;SDS011;61549;37.044;22.128;2022-12-24T16:59:46;13.60;;;10.10;;
73321;SDS011;61549;37.044;22.128;2022-12-24T17:02:13;12.70;;;9.63;;
73321;SDS011;61549;37.044;22.128;2022-12-24T17:04:40;11.10;;;9.20;;
73321;SDS011;61549;37.044;22.128;2022-12-24T17:07:08;11.82;;;9.50;;
73321;SDS011;61549;37.044;22.128;2022-12-24T17:09:35;11.38;;;9.40;;
73321;SDS011;61549;37.044;22.128;2022-12-24T17:12:01;9.10;;;7.70;;
73321;SDS011;61549;37.044;22.128;2022-12-24T17:14:27;8.93;;;7.40;;